createdAt,value
2019-01-21T00:00:01.145Z,98985.55
2019-01-21T00:02:34.124Z,98988.61
2019-01-21T00:05:06.366Z,98995.23
2019-01-21T00:07:40.020Z,98990.50
2019-01-21T00:10:12.170Z,98985.05
2019-01-21T00:12:44.030Z,98990.18
2019-01-21T00:15:18.382Z,98982.92
2019-01-21T00:17:49.689Z,98982.19
2019-01-21T00:20:23.194Z,98987.69
2019-01-21T00:22:57.211Z,98984.90
2019-01-21T00:25:30.196Z,98989.00
2019-01-21T00:28:02.351Z,98988.72
2019-01-21T00:30:37.776Z,98988.72
2019-01-21T00:33:10.359Z,98988.72
2019-01-21T00:35:41.643Z,98988.94
2019-01-21T00:38:15.305Z,98995.70
2019-01-21T00:40:49.237Z,98994.33
2019-01-21T00:43:22.268Z,98992.33
2019-01-21T00:45:54.203Z,98995.87
2019-01-21T00:48:26.173Z,99004.70
2019-01-21T00:50:59.133Z,99002.42
2019-01-21T00:53:34.885Z,99003.41
2019-01-21T00:56:07.183Z,99004.08
2019-01-21T00:58:38.458Z,99002.42
2019-01-21T01:01:10.608Z,99002.10
2019-01-21T01:03:42.234Z,99006.14
2019-01-21T01:06:15.244Z,99011.34
2019-01-21T01:08:47.299Z,99011.50
2019-01-21T01:11:23.917Z,99013.72
2019-01-21T01:13:56.048Z,99010.56
2019-01-21T01:16:27.308Z,99013.64
2019-01-21T01:19:00.544Z,99026.94
2019-01-21T01:21:34.244Z,99026.11
2019-01-21T01:24:09.878Z,99027.92
2019-01-21T01:26:41.449Z,99030.80
2019-01-21T01:29:14.515Z,99027.49
2019-01-21T01:31:46.519Z,99028.47
2019-01-21T01:34:18.309Z,99028.20
2019-01-21T01:36:49.568Z,99024.96
2019-01-21T01:39:25.125Z,99018.81
2019-01-21T01:41:57.635Z,99015.70
2019-01-21T01:44:30.507Z,99018.61
2019-01-21T01:47:02.296Z,99022.02
2019-01-21T01:49:35.665Z,99036.28
2019-01-21T01:52:08.545Z,99030.88
2019-01-21T01:54:40.616Z,99028.41
2019-01-21T01:57:12.499Z,99026.78
2019-01-21T01:59:45.654Z,98858.86
2019-01-21T02:02:19.499Z,99023.43
2019-01-21T02:04:54.768Z,99037.86
2019-01-21T02:07:27.704Z,99027.61
2019-01-21T02:10:03.235Z,99026.16
2019-01-21T02:12:37.608Z,99021.11
2019-01-21T02:15:11.223Z,99026.86
2019-01-21T02:17:51.836Z,99024.94
2019-01-21T02:20:20.637Z,99024.41
2019-01-21T02:22:55.270Z,99029.47
2019-01-21T02:25:44.002Z,99020.31
2019-01-21T02:28:27.420Z,99026.81
2019-01-21T02:31:37.700Z,99022.37
2019-01-21T02:34:50.231Z,99023.12
2019-01-21T02:37:57.006Z,99025.23
2019-01-21T02:40:45.757Z,99021.19
2019-01-21T02:43:58.245Z,99028.94
2019-01-21T02:46:58.909Z,99033.95
2019-01-21T02:50:15.321Z,99034.89
2019-01-21T02:53:19.940Z,99024.96
2019-01-21T02:56:35.839Z,99024.38
2019-01-21T02:59:22.564Z,99027.34
2019-01-21T03:02:53.489Z,99025.14
2019-01-21T03:06:00.374Z,99018.44
2019-01-21T03:09:14.557Z,99016.27
2019-01-21T03:12:27.785Z,99008.81
2019-01-21T03:15:30.762Z,99015.16
2019-01-21T03:18:48.831Z,99016.13
2019-01-21T03:22:16.273Z,99014.48
2019-01-21T03:25:09.410Z,99012.15
2019-01-21T03:28:26.803Z,99020.76
2019-01-21T03:31:35.877Z,99016.53
2019-01-21T03:34:32.405Z,99011.07
2019-01-21T03:37:36.915Z,99013.20
2019-01-21T03:40:42.207Z,99013.67
2019-01-21T03:43:55.016Z,99012.28
2019-01-21T03:47:04.096Z,99014.88
2019-01-21T03:50:04.994Z,99012.55
2019-01-21T03:53:18.238Z,99007.63
2019-01-21T03:55:55.078Z,99007.63
2019-01-21T03:58:53.445Z,99005.53
2019-01-21T04:01:53.095Z,99011.52
2019-01-21T04:04:58.661Z,99009.70
2019-01-21T04:07:43.069Z,99015.69
2019-01-21T04:10:51.400Z,99015.98
2019-01-21T04:13:55.127Z,99012.56
2019-01-21T04:17:13.299Z,99018.77
2019-01-21T04:20:36.621Z,99021.31
2019-01-21T04:23:53.129Z,99021.72
2019-01-21T04:26:55.118Z,99023.02
2019-01-21T04:29:59.454Z,99026.45
2019-01-21T04:33:08.208Z,99029.25
2019-01-21T04:35:58.584Z,99029.92
2019-01-21T04:39:00.080Z,99027.33
2019-01-21T04:41:51.729Z,99028.16
2019-01-21T04:44:57.077Z,99021.19
2019-01-21T04:48:11.024Z,99021.66
2019-01-21T04:51:38.718Z,99026.03
2019-01-21T04:54:41.759Z,99031.28
2019-01-21T04:57:49.990Z,99023.02
2019-01-21T05:00:50.567Z,99027.06
2019-01-21T05:04:01.294Z,99027.39
2019-01-21T05:07:17.616Z,99031.98
2019-01-21T05:10:21.602Z,99035.18
2019-01-21T05:13:44.513Z,99039.70
2019-01-21T05:16:43.552Z,99038.19
2019-01-21T05:19:52.645Z,99037.05
2019-01-21T05:22:52.978Z,99032.52
2019-01-21T05:26:22.293Z,99032.26
2019-01-21T05:29:24.801Z,99033.87
2019-01-21T05:32:42.576Z,99041.85
2019-01-21T05:36:10.329Z,99045.39
2019-01-21T05:38:51.945Z,99049.20
2019-01-21T05:42:12.846Z,99046.55
2019-01-21T05:45:10.732Z,99047.17
2019-01-21T05:48:16.118Z,99058.51
2019-01-21T05:51:38.639Z,99059.19
2019-01-21T05:54:51.731Z,99064.39
2019-01-21T05:57:58.228Z,99059.87
2019-01-21T06:00:54.996Z,99061.43
2019-01-21T06:03:55.820Z,99067.19
2019-01-21T06:07:01.067Z,99066.48
2019-01-21T06:09:58.230Z,99070.52
2019-01-21T06:13:01.784Z,99076.81
2019-01-21T06:16:20.758Z,99079.14
2019-01-21T06:19:25.795Z,99073.59
2019-01-21T06:22:31.645Z,99078.41
2019-01-21T06:25:50.580Z,99078.62
2019-01-21T06:29:04.005Z,99080.86
2019-01-21T06:32:14.599Z,99083.66
2019-01-21T06:34:59.581Z,99081.27
2019-01-21T06:38:00.736Z,99082.27
2019-01-21T06:41:17.242Z,99085.91
2019-01-21T06:44:24.287Z,99087.82
2019-01-21T06:47:26.330Z,99090.42
2019-01-21T06:51:04.164Z,99091.98
2019-01-21T06:54:08.747Z,99091.51
2019-01-21T06:57:31.231Z,99095.94
2019-01-21T07:00:35.943Z,99100.88
2019-01-21T07:03:39.587Z,99101.49
2019-01-21T07:07:07.082Z,99104.30
2019-01-21T07:10:17.578Z,99116.62
2019-01-21T07:13:52.194Z,99114.84
2019-01-21T07:17:14.365Z,99119.63
2019-01-21T07:20:25.457Z,99117.48
2019-01-21T07:23:38.930Z,99118.22
2019-01-21T07:26:51.413Z,99123.25
2019-01-21T07:30:09.797Z,99127.03
2019-01-21T07:33:18.929Z,99128.33
2019-01-21T07:36:47.816Z,99130.86
2019-01-21T07:40:26.203Z,99133.25
2019-01-21T07:43:51.420Z,99134.33
2019-01-21T07:47:05.171Z,99138.86
2019-01-21T07:50:20.641Z,99126.96
2019-01-21T07:53:25.842Z,99133.24
2019-01-21T07:56:36.395Z,99132.47
2019-01-21T07:59:49.061Z,99133.14
2019-01-21T08:02:40.851Z,99130.53
2019-01-21T08:05:38.672Z,99131.32
2019-01-21T08:09:01.750Z,99130.13
2019-01-21T08:12:30.189Z,99132.72
2019-01-21T08:15:20.365Z,99136.64
2019-01-21T08:18:42.445Z,99140.59
2019-01-21T08:22:07.618Z,99127.54
2019-01-21T08:25:04.641Z,99128.20
2019-01-21T08:28:14.480Z,99132.66
2019-01-21T08:31:23.896Z,99127.61
2019-01-21T08:34:40.018Z,99131.29
2019-01-21T08:37:41.746Z,99122.27
2019-01-21T08:41:06.839Z,99125.84
2019-01-21T08:44:20.244Z,99125.30
2019-01-21T08:47:34.516Z,99122.00
2019-01-21T08:50:40.627Z,99124.37
2019-01-21T08:53:39.642Z,99129.72
2019-01-21T08:56:23.254Z,99122.83
2019-01-21T08:59:38.730Z,99118.36
2019-01-21T09:03:08.025Z,99118.23
2019-01-21T09:06:09.717Z,99124.03
2019-01-21T09:09:33.846Z,99125.69
2019-01-21T09:12:52.555Z,99128.08
2019-01-21T09:16:06.800Z,99124.75
2019-01-21T09:19:12.708Z,99129.84
2019-01-21T09:22:26.831Z,99132.42
2019-01-21T09:25:06.997Z,99129.98
2019-01-21T09:28:13.737Z,99125.61
2019-01-21T09:31:18.102Z,99125.61
2019-01-21T09:34:17.935Z,99128.39
2019-01-21T09:37:23.458Z,99133.49
2019-01-21T09:40:43.814Z,99129.75
2019-01-21T09:43:40.754Z,99125.16
2019-01-21T09:46:49.807Z,99124.20
2019-01-21T09:49:22.025Z,99125.18
2019-01-21T09:52:07.068Z,99122.55
2019-01-21T09:54:41.513Z,99120.06
2019-01-21T09:57:21.408Z,99114.83
2019-01-21T10:00:00.974Z,99113.70
2019-01-21T10:02:55.487Z,99112.67
2019-01-21T10:05:30.418Z,99105.70
2019-01-21T10:08:52.746Z,99101.79
2019-01-21T10:12:15.627Z,99099.78
2019-01-21T10:15:11.007Z,99096.22
2019-01-21T10:18:14.977Z,99093.81
2019-01-21T10:21:11.341Z,99086.13
2019-01-21T10:24:45.173Z,99091.38
2019-01-21T10:27:37.914Z,99082.76
2019-01-21T10:30:42.834Z,99079.49
2019-01-21T10:34:09.004Z,99077.39
2019-01-21T10:37:37.040Z,99067.32
2019-01-21T10:40:29.125Z,99063.45
2019-01-21T10:43:45.633Z,99059.78
2019-01-21T10:46:42.021Z,99055.34
2019-01-21T10:49:34.993Z,99042.94
2019-01-21T10:52:47.510Z,98940.36
2019-01-21T10:55:55.438Z,99037.55
2019-01-21T10:59:01.372Z,99027.30
2019-01-21T11:02:20.020Z,99020.13
2019-01-21T11:05:01.210Z,99023.53
2019-01-21T11:08:31.012Z,99018.41
2019-01-21T11:11:38.307Z,99020.06
2019-01-21T11:14:56.074Z,99010.64
2019-01-21T11:18:01.289Z,99005.52
2019-01-21T11:21:12.413Z,99006.45
2019-01-21T11:24:04.537Z,99004.89
2019-01-21T11:27:33.226Z,98995.30
2019-01-21T11:31:07.905Z,98986.25
2019-01-21T11:34:15.302Z,98990.45
2019-01-21T11:37:31.388Z,98986.67
2019-01-21T11:40:53.293Z,98981.88
2019-01-21T11:44:13.641Z,98978.88
2019-01-21T11:47:23.081Z,98970.98
2019-01-21T11:50:22.612Z,98970.73
2019-01-21T11:53:39.966Z,98974.25
2019-01-21T11:56:27.505Z,98974.84
2019-01-21T11:59:30.256Z,98967.84
2019-01-21T12:02:54.557Z,98971.56
2019-01-21T12:05:42.524Z,98971.53
2019-01-21T12:08:47.741Z,98967.30
2019-01-21T12:11:59.430Z,98967.70
2019-01-21T12:15:00.233Z,98957.92
2019-01-21T12:17:44.392Z,98952.66
2019-01-21T12:20:43.023Z,98946.53
2019-01-21T12:23:44.439Z,98946.58
2019-01-21T12:27:11.999Z,98942.34
2019-01-21T12:30:27.376Z,98941.09
2019-01-21T12:33:14.855Z,98935.34
2019-01-21T12:35:58.239Z,98933.42
2019-01-21T12:39:00.627Z,98934.45
2019-01-21T12:41:49.485Z,98928.39
2019-01-21T12:44:57.681Z,98928.97
2019-01-21T12:48:02.016Z,98922.56
2019-01-21T12:51:22.224Z,98923.70
2019-01-21T12:54:31.263Z,98920.62
2019-01-21T12:57:53.244Z,98917.48
2019-01-21T13:01:03.641Z,98910.42
2019-01-21T13:04:34.999Z,98908.69
2019-01-21T13:07:56.139Z,98909.02
2019-01-21T13:11:28.487Z,98908.02
2019-01-21T13:14:32.491Z,98907.95
2019-01-21T13:17:24.207Z,98902.41
2019-01-21T13:20:38.168Z,98899.31
2019-01-21T13:23:42.006Z,98902.39
2019-01-21T13:26:50.397Z,98897.00
2019-01-21T13:29:41.216Z,98902.23
2019-01-21T13:32:55.863Z,98905.81
2019-01-21T13:36:14.508Z,98899.35
2019-01-21T13:39:18.538Z,98900.26
2019-01-21T13:42:24.820Z,98898.33
2019-01-21T13:45:34.366Z,98888.17
2019-01-21T13:48:30.598Z,98888.63
2019-01-21T13:51:27.977Z,98888.25
2019-01-21T13:54:41.374Z,98890.19
2019-01-21T13:57:49.999Z,98887.97
2019-01-21T14:00:39.383Z,98888.66
2019-01-21T14:03:47.386Z,98881.47
2019-01-21T14:06:59.621Z,98879.08
2019-01-21T14:10:21.587Z,98880.11
2019-01-21T14:13:05.955Z,98876.98
2019-01-21T14:15:51.557Z,98877.89
2019-01-21T14:18:57.367Z,98876.34
2019-01-21T14:22:08.797Z,98872.20
2019-01-21T14:25:17.801Z,98876.64
2019-01-21T14:28:26.771Z,98872.30
2019-01-21T14:31:40.017Z,98878.28
2019-01-21T14:34:52.534Z,98873.95
2019-01-21T14:37:50.423Z,98867.50
2019-01-21T14:40:31.975Z,98859.63
2019-01-21T14:43:46.277Z,98865.34
2019-01-21T14:46:55.150Z,98859.59
2019-01-21T14:49:51.203Z,98857.62
2019-01-21T14:52:53.601Z,98867.94
2019-01-21T14:55:44.919Z,98865.83
2019-01-21T14:58:36.607Z,98870.47
2019-01-21T15:01:42.479Z,98864.48
2019-01-21T15:04:33.086Z,98870.52
2019-01-21T15:07:45.304Z,98861.91
2019-01-21T15:10:45.701Z,98865.42
2019-01-21T15:13:49.342Z,98866.11
2019-01-21T15:17:02.225Z,98866.92
2019-01-21T15:20:40.476Z,98862.75
2019-01-21T15:23:57.973Z,98871.91
2019-01-21T15:26:39.806Z,98879.31
2019-01-21T15:29:31.551Z,98873.53
2019-01-21T15:32:43.133Z,98877.09
2019-01-21T15:35:42.156Z,98874.84
2019-01-21T15:38:44.455Z,98872.97
2019-01-21T15:41:49.372Z,98871.22
2019-01-21T15:45:05.706Z,98872.40
2019-01-21T15:48:09.495Z,98873.95
2019-01-21T15:51:10.818Z,98870.37
2019-01-21T15:54:10.223Z,98874.79
2019-01-21T15:57:33.560Z,98875.02
2019-01-21T16:00:42.993Z,98875.73
2019-01-21T16:04:06.751Z,98877.88
2019-01-21T16:07:01.456Z,98874.28
2019-01-21T16:10:00.938Z,98874.95
2019-01-21T16:12:53.506Z,98873.68
2019-01-21T16:16:07.005Z,98881.20
2019-01-21T16:18:56.817Z,98876.48
2019-01-21T16:22:08.086Z,98871.44
2019-01-21T16:25:00.249Z,98878.66
2019-01-21T16:28:14.383Z,98863.27
2019-01-21T16:30:57.818Z,98867.53
2019-01-21T16:34:26.654Z,98868.20
2019-01-21T16:37:49.416Z,98872.65
2019-01-21T16:40:58.601Z,98864.30
2019-01-21T16:43:31.674Z,98868.59
2019-01-21T16:46:03.978Z,98870.40
2019-01-21T16:48:36.678Z,98876.14
2019-01-21T16:51:10.627Z,98866.98
2019-01-21T16:53:45.044Z,98864.69
2019-01-21T16:56:18.502Z,98870.59
2019-01-21T16:58:53.858Z,98866.02
2019-01-21T17:01:28.194Z,98868.33
2019-01-21T17:04:01.438Z,98875.67
2019-01-21T17:06:34.581Z,98875.52
2019-01-21T17:09:10.473Z,98865.04
2019-01-21T17:11:42.419Z,98878.95
2019-01-21T17:14:14.017Z,98872.89
2019-01-21T17:16:46.733Z,98878.77
2019-01-21T17:19:18.084Z,98873.22
2019-01-21T17:21:51.919Z,98869.95
2019-01-21T17:24:25.621Z,98873.55
2019-01-21T17:26:56.985Z,98872.58
2019-01-21T17:29:28.240Z,98869.47
2019-01-21T17:32:01.621Z,98870.61
2019-01-21T17:34:33.359Z,98874.55
2019-01-21T17:37:06.682Z,98876.16
2019-01-21T17:39:40.807Z,98877.97
2019-01-21T17:42:12.821Z,98876.83
2019-01-21T17:44:45.740Z,98876.64
2019-01-21T17:47:19.593Z,98882.03
2019-01-21T17:49:50.890Z,98883.01
2019-01-21T17:52:22.147Z,98882.98
2019-01-21T17:54:55.725Z,98889.20
2019-01-21T17:57:28.727Z,98890.17
2019-01-21T18:00:03.358Z,98890.66
2019-01-21T18:02:37.837Z,98884.28
2019-01-21T18:05:10.137Z,98881.95
2019-01-21T18:07:42.560Z,98879.18
2019-01-21T18:10:15.088Z,98878.36
2019-01-21T18:12:47.865Z,98883.25
2019-01-21T18:15:20.862Z,98875.41
2019-01-21T18:17:54.917Z,98880.64
2019-01-21T18:20:26.974Z,98877.20
2019-01-21T18:22:59.868Z,98874.25
2019-01-21T18:25:34.710Z,98884.19
2019-01-21T18:28:05.833Z,98879.94
2019-01-21T18:30:39.930Z,98888.08
2019-01-21T18:33:14.055Z,98881.52
2019-01-21T18:35:48.248Z,98881.22
2019-01-21T18:38:22.511Z,98877.27
2019-01-21T18:40:55.172Z,98877.92
2019-01-21T18:43:27.404Z,98887.67
2019-01-21T18:46:01.183Z,98883.77
2019-01-21T18:48:35.089Z,98886.85
2019-01-21T18:51:07.152Z,98885.34
2019-01-21T18:53:40.072Z,98885.52
2019-01-21T18:56:13.244Z,98890.22
2019-01-21T18:58:45.304Z,98891.04
2019-01-21T19:01:18.965Z,98890.18
2019-01-21T19:03:50.320Z,98887.87
2019-01-21T19:06:24.325Z,98884.58
2019-01-21T19:08:58.288Z,98887.18
2019-01-21T19:11:32.461Z,98888.61
2019-01-21T19:14:04.602Z,98884.19
2019-01-21T19:16:37.119Z,98887.78
2019-01-21T19:19:10.466Z,98887.09
2019-01-21T19:21:41.991Z,98883.83
2019-01-21T19:24:16.192Z,98882.83
2019-01-21T19:26:50.246Z,98884.78
2019-01-21T19:29:24.452Z,98886.69
2019-01-21T19:31:56.381Z,98880.47
2019-01-21T19:34:29.268Z,98880.42
2019-01-21T19:37:02.883Z,98879.23
2019-01-21T19:39:34.244Z,98885.10
2019-01-21T19:42:08.384Z,98883.94
2019-01-21T19:44:42.440Z,98891.75
2019-01-21T19:47:15.319Z,98881.80
2019-01-21T19:49:49.318Z,98884.92
2019-01-21T19:52:22.353Z,98887.83
2019-01-21T19:54:54.791Z,98882.09
2019-01-21T19:57:26.132Z,98880.61
2019-01-21T19:59:59.306Z,98885.16
2019-01-21T20:02:32.004Z,98881.20
2019-01-21T20:05:03.995Z,98879.88
2019-01-21T20:07:35.396Z,98880.48
2019-01-21T20:10:09.096Z,98880.73
2019-01-21T20:12:43.462Z,98878.23
2019-01-21T20:15:16.990Z,98878.72
2019-01-21T20:17:48.388Z,98875.02
2019-01-21T20:20:22.867Z,98881.37
2019-01-21T20:22:57.588Z,98879.24
2019-01-21T20:25:30.523Z,98875.38
2019-01-21T20:28:02.764Z,98866.58
2019-01-21T20:30:35.616Z,98870.65
2019-01-21T20:33:07.718Z,98870.59
2019-01-21T20:35:40.474Z,98879.52
2019-01-21T20:38:14.491Z,98873.62
2019-01-21T20:40:45.867Z,98876.73
2019-01-21T20:43:19.485Z,98871.52
2019-01-21T20:45:50.922Z,98871.13
2019-01-21T20:48:23.187Z,98870.46
2019-01-21T20:50:54.672Z,98869.32
2019-01-21T20:53:26.766Z,98867.20
2019-01-21T20:55:59.573Z,98870.33
2019-01-21T20:58:32.013Z,98872.64
2019-01-21T21:01:04.073Z,98874.42
2019-01-21T21:03:35.669Z,98861.34
2019-01-21T21:06:07.140Z,98862.62
2019-01-21T21:08:38.499Z,98863.88
2019-01-21T21:11:12.102Z,98866.13
2019-01-21T21:13:45.698Z,98865.47
2019-01-21T21:16:17.722Z,98866.48
2019-01-21T21:18:49.680Z,98868.08
2019-01-21T21:21:22.671Z,98871.77
2019-01-21T21:23:55.699Z,98868.08
2019-01-21T21:26:27.759Z,98862.36
2019-01-21T21:29:00.748Z,98859.92
2019-01-21T21:31:32.035Z,98864.30
2019-01-21T21:34:03.289Z,98865.58
2019-01-21T21:36:36.856Z,98868.19
2019-01-21T21:39:09.505Z,98866.00
2019-01-21T21:41:41.802Z,98867.12
2019-01-21T21:44:15.871Z,98867.70
2019-01-21T21:46:49.833Z,98869.98
2019-01-21T21:49:24.779Z,98873.53
2019-01-21T21:51:58.995Z,98868.24
2019-01-21T21:54:31.899Z,98873.39
2019-01-21T21:57:04.034Z,98865.67
2019-01-21T21:59:36.820Z,98865.77
2019-01-21T22:02:08.097Z,98872.75
2019-01-21T22:04:41.758Z,98865.77
2019-01-21T22:07:15.798Z,98871.45
2019-01-21T22:09:47.075Z,98868.94
2019-01-21T22:12:18.367Z,98863.42
2019-01-21T22:14:51.947Z,98863.42
2019-01-21T22:17:25.934Z,98859.17
2019-01-21T22:19:59.813Z,98858.70
2019-01-21T22:22:34.807Z,98854.16
2019-01-21T22:25:08.315Z,98859.17
2019-01-21T22:27:41.947Z,98853.02
2019-01-21T22:30:21.233Z,98852.13
2019-01-21T22:32:52.959Z,98853.04
2019-01-21T22:35:27.047Z,98848.19
2019-01-21T22:37:58.310Z,98845.78
2019-01-21T22:40:29.575Z,98847.27
2019-01-21T22:43:03.028Z,98857.39
2019-01-21T22:45:34.331Z,98858.88
2019-01-21T22:48:07.226Z,98868.17
2019-01-21T22:50:40.073Z,98859.42
2019-01-21T22:53:13.051Z,98861.67
2019-01-21T22:55:48.649Z,98855.61
2019-01-21T22:58:21.092Z,98855.73
2019-01-21T23:01:04.370Z,98860.94
2019-01-21T23:03:38.015Z,98852.31
2019-01-21T23:06:12.016Z,98844.77
2019-01-21T23:08:46.083Z,98846.81
2019-01-21T23:11:21.142Z,98842.72
2019-01-21T23:13:54.428Z,98842.22
2019-01-21T23:16:29.885Z,98843.83
2019-01-21T23:19:02.107Z,98843.13
2019-01-21T23:21:36.147Z,98849.05
2019-01-21T23:24:10.280Z,98852.19
2019-01-21T23:26:44.081Z,98840.53
2019-01-21T23:29:16.284Z,98838.95
2019-01-21T23:31:49.165Z,98836.54
2019-01-21T23:34:20.462Z,98840.16
2019-01-21T23:36:54.327Z,98837.72
2019-01-21T23:39:28.331Z,98836.48
2019-01-21T23:42:02.224Z,98831.82
2019-01-21T23:44:38.054Z,98831.66
2019-01-21T23:47:10.097Z,98831.66
2019-01-21T23:49:41.367Z,98830.02
2019-01-21T23:52:14.605Z,98818.19
2019-01-21T23:54:48.426Z,98813.11
2019-01-21T23:57:22.419Z,98808.06
2019-01-21T23:59:56.438Z,98811.97
